Shattuck, Oklahoma
Current Conditions -  °F | °C
As of 2:53 AM on Thursday 23 Oct 2014 (Local Time) from KGAG Reporting Station
Overcast Overcast  
Wind Chill: 60°   Ceiling: 1200
Heat Index: 60°   Visibility: 7mi
Dew Point: 59°   Wind: 8mph
Humidity: 96%   Direction: 200°SSW
Pressure: 30.08"   Gusts: NA
Location:  36.28°N, 99.88°W
Report Text: KGAG 230753Z AUTO 20007KT 7SM OVC012 16/15 A3008 RMK AO2 SLP175 T01560150
Loading
Personal Weather Stations






























Interactive Weather Map
Tropical Storm Tracking
New forecast layout! Learn more

10-Day Weather Forecast

Advertisements
Track Severe Weather on mobile